Time;durP1;ratioP1;P1;durP2;ratioP2;P2;SDS_P1;SDS_P2;PMS_P1;PMS_P2;Temp;Humidity;BMP_temperature;BMP_pressure;BME280_temperature;BME280_humidity;BME280_pressure;Samples;Min_cycle;Max_cycle;Signal;HPM_P1;HPM_P2
2022/10/04 00:02:05;;;;;;;11.63;4.97;;;12.70;99.90;;;;;;5068425;28;20036;-78
2022/10/04 00:04:33;;;;;;;;;;;12.70;99.90;;;;;;5056512;28;20703;-78
2022/10/04 00:07:07;;;;;;;13.32;4.95;;;12.80;99.90;;;;;;5069743;28;19960;-78
2022/10/04 00:10:00;;;;;;;11.13;5.32;;;12.80;99.90;;;;;;5069347;28;20033;-78
2022/10/04 00:12:29;;;;;;;11.80;5.10;;;12.70;99.90;;;;;;5061639;28;20114;-79
2022/10/04 00:14:58;;;;;;;10.35;5.03;;;12.70;99.90;;;;;;5052300;28;20105;-79
2022/10/04 00:17:30;;;;;;;13.18;5.07;;;12.80;99.90;;;;;;5069476;28;20115;-79
2022/10/04 00:19:56;;;;;;;10.95;5.22;;;12.80;99.90;;;;;;5052479;28;20044;-79
2022/10/04 00:22:30;;;;;;;13.13;5.72;;;12.80;99.90;;;;;;5069103;28;20106;-79
2022/10/04 00:25:16;;;;;;;16.30;5.78;;;12.80;99.90;;;;;;5052267;28;20040;-79
2022/10/04 00:28:33;;;;;;;12.55;5.68;;;12.80;99.90;;;;;;5066807;28;20123;-79
2022/10/04 00:31:14;;;;;;;9.48;5.32;;;12.80;99.90;;;;;;5034004;28;20166;-80
2022/10/04 00:33:52;;;;;;;12.52;5.70;;;12.80;99.90;;;;;;5050015;28;20121;-79
2022/10/04 00:36:24;;;;;;;13.73;5.70;;;12.70;99.90;;;;;;5050195;28;20033;-79
2022/10/04 00:39:03;;;;;;;11.18;5.50;;;12.70;99.90;;;;;;5068011;28;20067;-79
2022/10/04 00:41:42;;;;;;;12.43;5.80;;;12.70;99.90;;;;;;5067445;28;20133;-79
2022/10/04 00:44:18;;;;;;;9.45;5.57;;;12.70;99.90;;;;;;5068203;28;20060;-79
2022/10/04 00:46:47;;;;;;;17.73;6.47;;;12.70;99.90;;;;;;5068825;28;20039;-79
2022/10/04 00:49:15;;;;;;;15.20;5.82;;;12.60;99.90;;;;;;5073000;28;20036;-79
2022/10/04 00:51:53;;;;;;;14.57;6.07;;;12.60;99.90;;;;;;5072510;28;20055;-79
2022/10/04 00:54:43;;;;;;;12.10;6.30;;;12.60;99.90;;;;;;5072555;28;20040;-79
2022/10/04 00:57:21;;;;;;;13.48;5.82;;;12.50;99.90;;;;;;5071635;28;20052;-79
2022/10/04 00:59:54;;;;;;;11.93;6.18;;;12.50;99.90;;;;;;5072497;28;20511;-79
2022/10/04 01:02:33;;;;;;;15.32;6.63;;;12.50;99.90;;;;;;5072201;28;21602;-79
2022/10/04 01:05:12;;;;;;;16.13;6.40;;;12.60;99.90;;;;;;5072758;28;20055;-79
2022/10/04 01:07:48;;;;;;;16.50;6.38;;;12.40;99.90;;;;;;5072801;28;20426;-79
2022/10/04 01:10:24;;;;;;;10.73;5.80;;;12.40;99.90;;;;;;5072686;28;20029;-79
2022/10/04 01:13:06;;;;;;;16.27;6.38;;;12.40;99.90;;;;;;5070993;28;20407;-79
2022/10/04 01:15:41;;;;;;;10.48;6.25;;;12.30;99.90;;;;;;5072415;28;20036;-79
2022/10/04 01:18:14;;;;;;;13.23;6.15;;;12.30;99.90;;;;;;5072775;28;20087;-79
2022/10/04 01:21:18;;;;;;;12.43;6.80;;;12.30;99.90;;;;;;5055153;28;20475;-77
2022/10/04 01:23:45;;;;;;;13.82;7.05;;;12.20;99.90;;;;;;5070426;28;20036;-79
2022/10/04 01:26:22;;;;;;;;;;;12.20;99.90;;;;;;5072897;28;20047;-79
2022/10/04 01:28:48;;;;;;;13.23;6.55;;;12.30;99.90;;;;;;5055329;28;19916;-79
2022/10/04 01:31:14;;;;;;;18.27;6.90;;;12.30;99.90;;;;;;5055578;28;20090;-79
2022/10/04 01:33:40;;;;;;;;;;;12.30;99.90;;;;;;5055730;28;20040;-79
2022/10/04 01:36:06;;;;;;;14.63;7.32;;;12.20;99.90;;;;;;5072465;28;20433;-79
2022/10/04 01:38:32;;;;;;;15.70;7.35;;;12.10;99.90;;;;;;5055695;28;20039;-79
2022/10/04 01:40:59;;;;;;;13.77;6.47;;;12.10;99.90;;;;;;5071878;28;20500;-79
2022/10/04 01:43:31;;;;;;;18.92;7.55;;;12.10;99.90;;;;;;5071353;28;20569;-79
2022/10/04 01:46:19;;;;;;;13.27;7.50;;;12.20;99.90;;;;;;5054990;28;20107;-79
2022/10/04 01:48:45;;;;;;;15.15;7.55;;;12.20;99.90;;;;;;5071191;28;20115;-79
2022/10/04 01:51:22;;;;;;;;;;;12.20;99.90;;;;;;5072219;28;20041;-79
2022/10/04 01:53:59;;;;;;;12.60;7.32;;;12.10;99.90;;;;;;5071570;28;19967;-79
2022/10/04 01:56:32;;;;;;;16.05;6.88;;;12.10;99.90;;;;;;5071833;28;20048;-79
2022/10/04 01:59:01;;;;;;;17.40;8.00;;;12.10;99.90;;;;;;5069196;28;20454;-79
2022/10/04 02:01:48;;;;;;;17.00;8.07;;;12.00;99.90;;;;;;5071425;28;20043;-79
2022/10/04 02:04:27;;;;;;;15.15;8.20;;;12.10;99.90;;;;;;5071628;28;20492;-79
2022/10/04 02:06:55;;;;;;;17.30;8.27;;;12.00;99.90;;;;;;5054510;28;20124;-79
2022/10/04 02:09:28;;;;;;;17.95;8.10;;;12.00;99.90;;;;;;5071487;28;20041;-79
2022/10/04 02:11:54;;;;;;;20.05;9.00;;;12.00;99.90;;;;;;5070969;28;20036;-79
2022/10/04 02:14:24;;;;;;;;;;;12.00;99.90;;;;;;5071800;28;20041;-79
2022/10/04 02:16:52;;;;;;;18.60;8.55;;;11.90;99.90;;;;;;5070972;28;19951;-79
2022/10/04 02:19:21;;;;;;;21.17;8.57;;;11.90;99.90;;;;;;5071628;28;20040;-79
2022/10/04 02:21:48;;;;;;;16.88;8.38;;;11.90;99.90;;;;;;5053857;28;20075;-79
2022/10/04 02:24:15;;;;;;;14.13;7.95;;;11.90;99.90;;;;;;5071098;28;20033;-79
2022/10/04 02:26:40;;;;;;;20.30;8.88;;;11.80;99.90;;;;;;5071365;28;20504;-79
2022/10/04 02:29:08;;;;;;;18.20;8.53;;;11.80;99.90;;;;;;5070853;28;20071;-79
2022/10/04 02:34:22;;;;;;;16.98;9.10;;;11.80;99.90;;;;;;5070425;28;20051;-78
2022/10/04 02:36:50;;;;;;;12.95;7.97;;;11.70;99.90;;;;;;5070504;28;20040;-79
2022/10/04 02:39:51;;;;;;;16.83;7.85;;;11.70;99.90;;;;;;5054658;28;20492;-78
2022/10/04 02:42:36;;;;;;;17.95;8.88;;;11.70;99.90;;;;;;5069969;28;20036;-78
2022/10/04 02:45:20;;;;;;;11.85;7.55;;;11.60;99.90;;;;;;5068593;28;20526;-78
2022/10/04 02:47:56;;;;;;;16.67;8.32;;;11.60;99.90;;;;;;5069238;28;20040;-78
2022/10/04 02:50:35;;;;;;;20.60;9.30;;;11.50;99.90;;;;;;5070958;28;20484;-78
2022/10/04 02:53:20;;;;;;;18.90;8.55;;;11.50;99.90;;;;;;5068312;28;20040;-79
2022/10/04 02:55:47;;;;;;;14.85;8.20;;;11.40;99.90;;;;;;5069431;28;20036;-78
2022/10/04 02:58:17;;;;;;;14.68;8.85;;;11.40;99.90;;;;;;5070922;28;20090;-79
2022/10/04 03:00:55;;;;;;;16.40;9.05;;;11.50;99.90;;;;;;5070426;28;20124;-79
2022/10/04 03:03:28;;;;;;;15.95;8.30;;;11.50;99.90;;;;;;5068118;28;20040;-79
2022/10/04 03:06:16;;;;;;;21.05;8.38;;;11.50;99.90;;;;;;5053548;28;20407;-79
2022/10/04 03:08:42;;;;;;;18.10;8.00;;;11.50;99.90;;;;;;5052257;28;20075;-78
2022/10/04 03:11:10;;;;;;;19.47;8.90;;;11.50;99.90;;;;;;5070000;28;20673;-78
2022/10/04 03:13:38;;;;;;;16.98;8.65;;;11.50;99.90;;;;;;5070357;28;20044;-78
2022/10/04 03:16:04;;;;;;;24.02;9.50;;;11.50;99.90;;;;;;5070068;28;20445;-78
2022/10/04 03:18:30;;;;;;;;;;;11.50;99.90;;;;;;5070644;28;20032;-78
2022/10/04 03:20:57;;;;;;;18.95;8.07;;;11.50;99.90;;;;;;5053323;28;19943;-79
2022/10/04 03:23:23;;;;;;;17.38;8.10;;;11.50;99.90;;;;;;5069550;28;20409;-78
2022/10/04 03:26:01;;;;;;;15.00;7.75;;;11.50;99.90;;;;;;5070113;28;20044;-78
2022/10/04 03:28:28;;;;;;;18.55;8.45;;;11.60;99.90;;;;;;5070036;28;20051;-78
2022/10/04 03:30:54;;;;;;;16.50;8.23;;;11.60;99.90;;;;;;5069897;28;20511;-78
2022/10/04 03:33:23;;;;;;;15.00;7.88;;;11.50;99.90;;;;;;5053689;28;20048;-78
2022/10/04 03:35:52;;;;;;;15.75;7.97;;;11.50;99.90;;;;;;5069709;28;20040;-78
2022/10/04 03:38:19;;;;;;;18.60;8.50;;;11.50;99.90;;;;;;5069828;28;20048;-78
2022/10/04 03:40:58;;;;;;;17.25;7.82;;;11.50;99.90;;;;;;5069647;28;20044;-78
2022/10/04 03:43:33;;;;;;;13.15;8.77;;;11.40;99.90;;;;;;5052857;28;20086;-78
2022/10/04 03:46:04;;;;;;;17.67;8.30;;;11.40;99.90;;;;;;5069515;28;20048;-79
2022/10/04 03:48:38;;;;;;;15.50;7.43;;;11.40;99.90;;;;;;5053201;28;20040;-79
2022/10/04 03:51:09;;;;;;;14.50;8.05;;;11.40;99.90;;;;;;5069059;28;20028;-79
2022/10/04 03:53:43;;;;;;;16.23;7.57;;;11.40;99.90;;;;;;5052160;28;20500;-79
2022/10/04 03:56:31;;;;;;;13.10;8.20;;;11.40;99.90;;;;;;5036963;28;20056;-79
2022/10/04 03:59:00;;;;;;;21.55;8.82;;;11.40;99.90;;;;;;5069334;28;20079;-79
2022/10/04 04:01:39;;;;;;;17.52;8.25;;;11.30;99.90;;;;;;5069152;28;20037;-79
2022/10/04 04:04:49;;;;;;;15.73;8.30;;;11.30;99.90;;;;;;5053147;28;20036;-79
2022/10/04 04:07:23;;;;;;;14.07;7.85;;;11.30;99.90;;;;;;5031677;28;20045;-78
2022/10/04 04:10:04;;;;;;;16.23;8.07;;;11.30;99.90;;;;;;5052681;28;20033;-78
2022/10/04 04:12:49;;;;;;;19.15;7.97;;;11.30;99.90;;;;;;5052320;28;20123;-79
2022/10/04 04:15:15;;;;;;;17.20;7.85;;;11.30;99.90;;;;;;5067142;28;20143;-79
2022/10/04 04:17:51;;;;;;;13.20;7.35;;;11.20;99.90;;;;;;5052956;28;20105;-78
2022/10/04 04:20:34;;;;;;;15.88;8.20;;;11.20;99.90;;;;;;5052822;28;20093;-78
2022/10/04 04:23:18;;;;;;;15.95;7.70;;;11.10;99.90;;;;;;5071572;28;20379;-78
2022/10/04 04:25:47;;;;;;;14.95;7.95;;;11.10;99.90;;;;;;5074313;28;20545;-80
2022/10/04 04:28:32;;;;;;;13.43;7.80;;;11.10;99.90;;;;;;5073206;28;20040;-78
2022/10/04 04:31:00;;;;;;;15.32;8.45;;;11.10;99.90;;;;;;5071461;28;20041;-78
2022/10/04 04:33:42;;;;;;;20.67;8.93;;;11.10;99.90;;;;;;5073438;28;20181;-79
2022/10/04 04:36:11;;;;;;;17.20;8.32;;;11.10;99.90;;;;;;5073251;28;20489;-76
2022/10/04 04:41:23;;;;;;;15.40;8.15;;;11.00;99.90;;;;;;5071138;28;20056;-78
2022/10/04 04:43:49;;;;;;;14.10;8.13;;;11.10;99.90;;;;;;5073630;28;20040;-78
2022/10/04 04:46:16;;;;;;;21.40;8.75;;;11.00;99.90;;;;;;5072459;28;20077;-78
2022/10/04 04:48:47;;;;;;;17.35;8.20;;;11.00;99.90;;;;;;5073214;28;20086;-77
2022/10/04 04:51:21;;;;;;;16.65;7.93;;;11.00;99.90;;;;;;5072720;28;20040;-78
2022/10/04 04:53:48;;;;;;;15.93;8.27;;;11.00;99.90;;;;;;5072887;28;20083;-78
2022/10/04 04:56:18;;;;;;;19.88;8.68;;;11.00;99.90;;;;;;5056124;28;20071;-78
2022/10/04 04:58:47;;;;;;;15.25;8.05;;;11.50;99.90;;;;;;5055885;28;20045;-78
2022/10/04 05:01:31;;;;;;;23.23;9.55;;;11.00;99.90;;;;;;5072583;28;20072;-78
2022/10/04 05:04:03;;;;;;;15.98;8.55;;;11.00;99.90;;;;;;5072676;28;20078;-79
2022/10/04 05:06:31;;;;;;;19.52;9.10;;;11.00;99.90;;;;;;5055672;28;20044;-77
2022/10/04 05:08:57;;;;;;;17.55;9.48;;;11.00;99.90;;;;;;5050865;28;20044;-78
2022/10/04 05:11:29;;;;;;;18.27;9.10;;;11.00;99.90;;;;;;5054166;28;20028;-79
2022/10/04 05:13:58;;;;;;;19.25;9.00;;;10.90;99.90;;;;;;5064970;28;20120;-78
2022/10/04 05:16:50;;;;;;;21.25;9.45;;;10.90;99.90;;;;;;5067746;28;20383;-79
2022/10/04 05:19:21;;;;;;;15.20;8.82;;;10.80;99.90;;;;;;5068659;28;20431;-78
2022/10/04 05:21:48;;;;;;;17.85;9.25;;;10.80;99.90;;;;;;5066777;28;20036;-78
2022/10/04 05:24:25;;;;;;;16.90;8.75;;;10.70;99.90;;;;;;5070180;28;20055;-78
2022/10/04 05:26:54;;;;;;;19.35;9.23;;;10.70;99.90;;;;;;5068800;28;20040;-78
2022/10/04 05:29:23;;;;;;;19.05;9.63;;;10.70;99.90;;;;;;5064021;28;20079;-78
2022/10/04 05:32:09;;;;;;;25.63;9.93;;;10.70;99.90;;;;;;5054343;28;20036;-79
2022/10/04 05:34:44;;;;;;;20.30;10.02;;;10.60;99.90;;;;;;5066403;28;20485;-76
2022/10/04 05:37:34;;;;;;;22.52;9.57;;;10.60;99.90;;;;;;5063871;28;20067;-76
2022/10/04 05:40:23;;;;;;;18.55;9.25;;;10.60;99.90;;;;;;5065311;28;20067;-76
2022/10/04 05:42:51;;;;;;;19.25;9.48;;;10.50;99.90;;;;;;5052400;28;20469;-76
2022/10/04 05:45:26;;;;;;;16.85;9.38;;;10.60;99.90;;;;;;5065134;28;20048;-76
2022/10/04 05:47:54;;;;;;;25.85;10.75;;;10.50;99.90;;;;;;5066429;28;20052;-77
2022/10/04 05:50:39;;;;;;;16.80;9.95;;;10.50;99.90;;;;;;5046403;28;20051;-76
2022/10/04 05:53:34;;;;;;;17.90;9.88;;;10.50;99.90;;;;;;5066744;28;20080;-76
2022/10/04 05:56:32;;;;;;;25.13;10.27;;;10.50;99.90;;;;;;5066591;28;20055;-76
2022/10/04 05:59:21;;;;;;;18.58;10.38;;;10.50;99.90;;;;;;5047764;28;20177;-76
2022/10/04 06:02:21;;;;;;;21.13;10.43;;;10.40;99.90;;;;;;5015725;28;20052;-76
2022/10/04 06:05:07;;;;;;;15.52;10.20;;;10.40;99.90;;;;;;5064556;28;20058;-76
2022/10/04 06:08:03;;;;;;;17.85;10.48;;;10.30;99.90;;;;;;5059761;28;20609;-75
2022/10/04 06:10:41;;;;;;;16.77;11.13;;;10.30;99.90;;;;;;5048053;28;20048;-76
2022/10/04 06:13:39;;;;;;;23.10;11.25;;;10.30;99.90;;;;;;5064440;28;20431;-76
2022/10/04 06:16:43;;;;;;;15.77;10.63;;;10.40;99.90;;;;;;5066569;28;20465;-77
2022/10/04 06:19:25;;;;;;;20.17;10.60;;;10.40;99.90;;;;;;5064842;28;20484;-77
2022/10/04 06:22:15;;;;;;;17.50;10.35;;;10.50;99.90;;;;;;5065148;28;20070;-76
2022/10/04 06:24:46;;;;;;;17.95;11.27;;;10.50;99.90;;;;;;5082390;28;20766;-76
2022/10/04 06:27:36;;;;;;;21.90;10.73;;;10.60;99.90;;;;;;5047572;28;20048;-77
2022/10/04 06:30:11;;;;;;;19.08;10.82;;;10.60;99.90;;;;;;5046574;28;20484;-77
2022/10/04 06:33:22;;;;;;;19.20;10.98;;;10.70;99.90;;;;;;5050005;28;20040;-77
2022/10/04 06:36:21;;;;;;;17.95;11.27;;;10.80;99.90;;;;;;5047964;28;20156;-77
2022/10/04 06:38:52;;;;;;;19.25;10.85;;;11.00;99.90;;;;;;5037564;28;20041;-77
2022/10/04 06:41:44;;;;;;;18.35;10.90;;;11.20;99.90;;;;;;5063328;28;20044;-77
2022/10/04 06:44:25;;;;;;;19.55;11.15;;;11.30;99.90;;;;;;5049705;28;20037;-76
2022/10/04 06:47:03;;;;;;;18.90;11.20;;;11.40;99.90;;;;;;5045724;28;20048;-76
2022/10/04 06:49:50;;;;;;;21.70;11.18;;;11.50;99.90;;;;;;5063658;28;20052;-76
2022/10/04 06:52:39;;;;;;;18.67;10.55;;;11.60;99.90;;;;;;5049018;28;20040;-76
2022/10/04 06:55:36;;;;;;;17.85;10.32;;;11.80;99.90;;;;;;5064701;28;20036;-76
2022/10/04 06:58:23;;;;;;;20.10;11.32;;;11.90;99.90;;;;;;5064592;28;20123;-76
2022/10/04 07:00:49;;;;;;;;;;;12.10;99.90;;;;;;5064468;28;20070;-76
2022/10/04 07:03:25;;;;;;;16.70;10.35;;;12.20;99.90;;;;;;5064807;28;20292;-76
2022/10/04 07:06:07;;;;;;;17.45;9.82;;;12.30;99.90;;;;;;5062855;28;20040;-76
2022/10/04 07:08:37;;;;;;;18.00;10.40;;;12.50;99.90;;;;;;5046076;28;20106;-77
2022/10/04 07:11:35;;;;;;;17.05;9.73;;;12.50;99.90;;;;;;5049531;28;20068;-77
2022/10/04 07:14:03;;;;;;;19.52;10.57;;;12.80;99.90;;;;;;5065598;28;20033;-76
2022/10/04 07:16:54;;;;;;;17.90;10.82;;;12.90;99.90;;;;;;5045723;28;20052;-77
2022/10/04 07:19:32;;;;;;;18.30;9.20;;;13.20;99.90;;;;;;5061955;28;20170;-77
2022/10/04 07:22:07;;;;;;;15.65;9.77;;;13.40;99.90;;;;;;5047540;28;20036;-77
2022/10/04 07:24:57;;;;;;;16.27;10.23;;;13.50;99.90;;;;;;5042192;28;20044;-77
2022/10/04 07:27:22;;;;;;;17.60;9.48;;;13.50;99.90;;;;;;5063239;28;20129;-77
2022/10/04 07:29:54;;;;;;;16.47;9.90;;;13.40;99.90;;;;;;5065014;28;20075;-76
2022/10/04 07:32:28;;;;;;;17.95;9.35;;;13.20;99.90;;;;;;5063988;28;20052;-77
2022/10/04 07:35:02;;;;;;;15.45;9.68;;;13.10;99.90;;;;;;5065838;28;20381;-76
2022/10/04 07:37:33;;;;;;;15.75;9.95;;;13.20;99.90;;;;;;5062872;28;20133;-77
2022/10/04 07:40:17;;;;;;;15.60;8.98;;;13.40;99.90;;;;;;5066445;28;20040;-77
2022/10/04 07:42:43;;;;;;;14.13;8.77;;;14.40;99.90;;;;;;5064057;28;20032;-77
2022/10/04 07:45:23;;;;;;;13.80;8.97;;;15.50;99.90;;;;;;5066126;28;20047;-78
2022/10/04 07:47:49;;;;;;;14.10;8.30;;;15.80;99.90;;;;;;5047687;28;20029;-77
2022/10/04 07:50:23;;;;;;;11.93;8.23;;;16.10;99.90;;;;;;5066591;28;20051;-77
2022/10/04 07:52:56;;;;;;;11.43;8.80;;;16.30;99.90;;;;;;5064794;28;20183;-77
2022/10/04 07:55:27;;;;;;;14.43;8.20;;;16.40;99.90;;;;;;5047615;28;20541;-77
2022/10/04 07:58:18;;;;;;;13.07;8.45;;;16.20;99.90;;;;;;5045349;28;20075;-77
2022/10/04 08:01:01;;;;;;;13.55;8.32;;;15.80;99.90;;;;;;5063560;28;20075;-77
2022/10/04 08:03:45;;;;;;;13.38;8.60;;;15.40;99.90;;;;;;5064173;28;20488;-77
2022/10/04 08:06:33;;;;;;;13.82;9.55;;;15.20;99.90;;;;;;5060947;28;20037;-77
2022/10/04 08:09:25;;;;;;;16.55;8.70;;;14.90;99.90;;;;;;5066857;28;20137;-77
2022/10/04 08:12:02;;;;;;;15.25;9.75;;;14.70;99.90;;;;;;5047050;28;20476;-77
2022/10/04 08:14:57;;;;;;;16.45;8.98;;;14.50;99.90;;;;;;5065000;28;20488;-77
2022/10/04 08:17:44;;;;;;;12.73;8.27;;;14.60;99.90;;;;;;5038640;28;20052;-76
2022/10/04 08:20:24;;;;;;;14.07;8.63;;;14.70;99.90;;;;;;5063698;28;20052;-77
2022/10/04 08:23:12;;;;;;;12.23;7.57;;;15.30;99.90;;;;;;5067090;28;20056;-77
2022/10/04 08:26:08;;;;;;;13.88;7.75;;;16.00;99.90;;;;;;5066137;28;20119;-78
2022/10/04 08:32:02;;;;;;;12.27;7.93;;;17.90;99.90;;;;;;5066531;28;20052;-77
2022/10/04 08:34:41;;;;;;;14.07;8.27;;;18.80;99.90;;;;;;5049051;28;20076;-77
2022/10/04 08:37:23;;;;;;;11.82;7.63;;;19.50;99.90;;;;;;5065649;28;20506;-78
2022/10/04 08:39:56;;;;;;;11.45;7.20;;;19.90;99.90;;;;;;5051009;28;20040;-78
2022/10/04 08:42:32;;;;;;;13.75;7.75;;;20.20;99.90;;;;;;5067259;28;20115;-77
2022/10/04 08:45:01;;;;;;;11.05;7.13;;;20.30;99.90;;;;;;5050622;28;20047;-78
2022/10/04 08:48:02;;;;;;;9.95;6.57;;;20.70;99.90;;;;;;5064387;28;20047;-78
2022/10/04 08:51:02;;;;;;;14.15;7.07;;;20.70;99.90;;;;;;5067106;28;20036;-77
2022/10/04 08:53:38;;;;;;;12.88;6.50;;;20.90;99.90;;;;;;5063956;28;20071;-78
2022/10/04 08:56:45;;;;;;;9.15;6.00;;;21.10;99.90;;;;;;5063772;28;20048;-77
2022/10/04 08:59:26;;;;;;;10.13;5.60;;;21.60;99.90;;;;;;5066271;28;20473;-77
2022/10/04 09:02:01;;;;;;;8.07;5.65;;;21.60;99.90;;;;;;5067347;28;20488;-77
2022/10/04 09:04:59;;;;;;;8.32;5.53;;;21.60;99.90;;;;;;5063949;28;20066;-77
2022/10/04 09:07:49;;;;;;;7.40;5.03;;;21.90;99.90;;;;;;5061572;28;20376;-77
2022/10/04 09:10:35;;;;;;;8.95;4.90;;;21.80;99.90;;;;;;5070708;28;20037;-78
2022/10/04 09:13:29;;;;;;;8.20;4.68;;;21.80;99.90;;;;;;5071269;28;20044;-77
2022/10/04 09:16:04;;;;;;;8.63;5.05;;;21.90;99.90;;;;;;5070928;28;20442;-78
2022/10/04 09:18:47;;;;;;;8.27;4.85;;;22.00;99.90;;;;;;5067351;28;20087;-78
2022/10/04 09:21:25;;;;;;;9.25;4.88;;;22.20;99.90;;;;;;5070738;28;20045;-77
2022/10/04 09:24:28;;;;;;;7.75;4.43;;;22.40;99.90;;;;;;5070574;28;20056;-77
2022/10/04 09:27:26;;;;;;;9.38;4.60;;;22.60;99.90;;;;;;5051135;28;20040;-77
2022/10/04 09:30:16;;;;;;;6.85;4.38;;;22.70;99.90;;;;;;5071116;28;20040;-77
2022/10/04 09:32:50;;;;;;;9.35;4.35;;;23.00;99.90;;;;;;5069865;28;20076;-78
2022/10/04 09:36:00;;;;;;;7.22;4.00;;;23.40;99.90;;;;;;5070094;28;20036;-77
2022/10/04 09:38:44;;;;;;;7.07;4.20;;;23.50;99.90;;;;;;5057023;28;20408;-79
2022/10/04 09:41:33;;;;;;;8.55;4.43;;;23.50;99.90;;;;;;5070049;28;20044;-77
2022/10/04 09:44:26;;;;;;;9.80;4.28;;;23.30;99.90;;;;;;5070819;28;20236;-77
2022/10/04 09:47:30;;;;;;;7.05;4.10;;;23.30;99.90;;;;;;5051945;28;20048;-78
2022/10/04 09:49:55;;;;;;;6.50;3.65;;;23.30;99.90;;;;;;5069581;28;20071;-77
2022/10/04 09:52:30;;;;;;;6.95;3.45;;;23.50;99.60;;;;;;5070715;28;20476;-77
2022/10/04 09:55:23;;;;;;;7.15;2.95;;;23.50;99.90;;;;;;5070364;28;20044;-78
2022/10/04 09:58:21;;;;;;;5.65;3.30;;;23.40;99.50;;;;;;5065412;28;20048;-77
2022/10/04 10:00:47;;;;;;;6.07;3.10;;;23.50;99.90;;;;;;5067361;28;21040;-78
2022/10/04 10:03:40;;;;;;;5.22;3.28;;;23.60;99.90;;;;;;5053281;28;20048;-77
2022/10/04 10:06:12;;;;;;;6.10;3.30;;;23.50;99.90;;;;;;5067253;28;20080;-78
2022/10/04 10:08:58;;;;;;;6.72;2.80;;;23.60;99.70;;;;;;5068464;28;20048;-77
2022/10/04 10:14:41;;;;;;;6.85;3.55;;;23.90;98.80;;;;;;5065860;28;20075;-78
2022/10/04 10:17:36;;;;;;;8.30;4.38;;;23.80;99.20;;;;;;5050060;28;20044;-78
2022/10/04 10:20:08;;;;;;;5.60;3.92;;;24.00;98.60;;;;;;5067261;28;20037;-78
2022/10/04 10:23:13;;;;;;;6.03;3.65;;;23.90;98.90;;;;;;5049320;28;20056;-78
2022/10/04 10:26:07;;;;;;;10.70;4.00;;;24.00;99.20;;;;;;5050206;28;20044;-78
2022/10/04 10:28:45;;;;;;;8.25;3.65;;;24.20;99.00;;;;;;5067013;28;20442;-82
2022/10/04 10:31:23;;;;;;;5.72;2.90;;;24.30;99.20;;;;;;5051037;28;20041;-81
2022/10/04 10:34:00;;;;;;;5.18;2.65;;;24.70;98.70;;;;;;5069001;28;20052;-82
2022/10/04 10:36:54;;;;;;;5.38;3.00;;;24.90;98.40;;;;;;5068222;28;20046;-82
2022/10/04 10:39:41;;;;;;;4.47;2.60;;;25.10;97.80;;;;;;5068470;28;20045;-82
2022/10/04 10:42:18;;;;;;;6.07;2.90;;;24.90;98.20;;;;;;5053349;28;20072;-82
2022/10/04 10:44:50;;;;;;;10.60;2.75;;;24.80;97.70;;;;;;5068678;28;20044;-82
2022/10/04 10:47:38;;;;;;;4.20;2.53;;;24.80;98.30;;;;;;5067903;28;20491;-82
2022/10/04 10:50:26;;;;;;;4.88;2.50;;;24.90;97.90;;;;;;5069860;28;20488;-81
2022/10/04 10:53:10;;;;;;;5.65;2.88;;;24.70;97.70;;;;;;5068594;28;20799;-82
2022/10/04 10:55:55;;;;;;;5.57;2.90;;;24.70;98.10;;;;;;5067101;28;20080;-81
2022/10/04 10:58:56;;;;;;;6.07;2.40;;;25.00;98.50;;;;;;5068768;28;20128;-82
2022/10/04 11:01:45;;;;;;;5.10;2.30;;;25.30;97.80;;;;;;5066990;28;20068;-82
2022/10/04 11:04:39;;;;;;;6.07;2.30;;;25.70;97.70;;;;;;5052265;28;20475;-82
2022/10/04 11:07:42;;;;;;;5.13;2.13;;;25.70;97.50;;;;;;5064599;28;20047;-82
2022/10/04 11:10:31;;;;;;;6.20;2.30;;;25.80;97.10;;;;;;5052955;28;20067;-76
2022/10/04 11:13:33;;;;;;;4.88;2.40;;;25.50;96.60;;;;;;5068106;28;20076;-76
2022/10/04 11:16:33;;;;;;;4.47;2.22;;;25.60;96.80;;;;;;5068236;28;20049;-76
2022/10/04 11:19:20;;;;;;;6.40;2.47;;;25.50;97.70;;;;;;5054786;28;20060;-76
2022/10/04 11:22:26;;;;;;;7.43;2.50;;;25.70;97.10;;;;;;5050593;28;20086;-76
2022/10/04 11:24:54;;;;;;;5.53;2.17;;;26.00;97.20;;;;;;5049089;28;20076;-76
2022/10/04 11:27:48;;;;;;;5.13;2.40;;;26.40;96.50;;;;;;5063403;28;20059;-76
2022/10/04 11:30:50;;;;;;;4.25;2.47;;;26.50;96.00;;;;;;5051478;28;20035;-76
2022/10/04 11:33:41;;;;;;;5.25;2.50;;;26.20;96.10;;;;;;5068213;28;20048;-75
2022/10/04 11:36:47;;;;;;;6.55;2.50;;;26.20;96.30;;;;;;5064879;28;20117;-76
2022/10/04 11:39:46;;;;;;;6.20;2.20;;;26.00;96.50;;;;;;5068283;28;20051;-76
2022/10/04 11:42:44;;;;;;;5.65;2.22;;;26.30;95.90;;;;;;5050851;28;20033;-76
2022/10/04 11:45:32;;;;;;;5.15;2.20;;;26.40;96.20;;;;;;5067541;28;20086;-76
2022/10/04 11:48:16;;;;;;;5.10;2.30;;;26.30;95.90;;;;;;5063334;28;20500;-76
2022/10/04 11:50:59;;;;;;;5.47;2.40;;;26.20;95.80;;;;;;5064824;28;20036;-76
2022/10/04 11:53:53;;;;;;;5.57;2.10;;;25.90;95.80;;;;;;5047146;28;20041;-76
2022/10/04 11:57:00;;;;;;;4.97;2.40;;;25.80;96.30;;;;;;5045537;28;20036;-76
2022/10/04 11:59:36;;;;;;;3.58;1.95;;;25.90;97.00;;;;;;5048967;28;20051;-76
2022/10/04 12:02:27;;;;;;;4.38;2.17;;;26.40;96.00;;;;;;5066669;28;20036;-76
2022/10/04 12:05:20;;;;;;;6.18;2.47;;;26.50;95.30;;;;;;5064396;28;20056;-76
2022/10/04 12:08:03;;;;;;;5.70;2.70;;;26.30;95.40;;;;;;5065612;28;20123;-76
2022/10/04 12:10:29;;;;;;;4.50;2.53;;;26.30;95.10;;;;;;5068103;28;20043;-76
2022/10/04 12:12:54;;;;;;;;;;;26.30;95.40;;;;;;5067577;28;20036;-76
2022/10/04 12:15:53;;;;;;;5.30;2.80;;;26.50;95.50;;;;;;5050853;28;19947;-76
2022/10/04 12:18:55;;;;;;;5.55;2.85;;;26.50;95.30;;;;;;5047806;28;20056;-76
2022/10/04 12:21:49;;;;;;;6.65;3.40;;;26.70;94.90;;;;;;5039659;28;20132;-76
2022/10/04 12:24:32;;;;;;;5.82;3.30;;;26.60;95.30;;;;;;5067278;28;20076;-76
2022/10/04 12:27:23;;;;;;;5.15;2.75;;;26.20;95.50;;;;;;5066136;28;20510;-76
2022/10/04 12:30:21;;;;;;;5.95;2.70;;;25.90;95.50;;;;;;5064074;28;20431;-76
2022/10/04 12:33:01;;;;;;;6.22;2.78;;;26.20;95.90;;;;;;5067326;28;20044;-76
2022/10/04 12:36:04;;;;;;;5.07;3.15;;;26.40;95.60;;;;;;5065325;28;20052;-75
2022/10/04 12:38:52;;;;;;;5.15;2.80;;;26.30;95.40;;;;;;5066296;28;20421;-75
2022/10/04 12:41:30;;;;;;;4.40;2.95;;;26.60;95.70;;;;;;5051491;28;20040;-75
2022/10/04 12:44:19;;;;;;;4.18;2.60;;;26.70;95.30;;;;;;5069461;28;20040;-75
2022/10/04 12:47:03;;;;;;;5.95;2.97;;;26.60;95.30;;;;;;5037249;28;20128;-75
2022/10/04 12:49:47;;;;;;;9.18;3.28;;;26.50;95.20;;;;;;5052339;28;20084;-75
2022/10/04 12:52:18;;;;;;;6.03;3.20;;;26.60;95.20;;;;;;5069669;28;20659;-74
2022/10/04 12:54:58;;;;;;;4.93;3.10;;;26.40;95.80;;;;;;5071515;28;20485;-75
2022/10/04 12:57:51;;;;;;;4.85;3.15;;;26.40;95.80;;;;;;5069179;28;20068;-75
2022/10/04 13:00:25;;;;;;;4.97;3.10;;;26.50;95.90;;;;;;5054527;28;20033;-75
2022/10/04 13:02:59;;;;;;;5.80;3.10;;;26.10;95.80;;;;;;5053444;28;20048;-75
2022/10/04 13:05:28;;;;;;;8.38;3.80;;;26.00;95.50;;;;;;5067370;28;20056;-75
2022/10/04 13:08:09;;;;;;;9.80;3.80;;;25.30;95.80;;;;;;5066103;28;20068;-74
2022/10/04 13:11:14;;;;;;;7.10;3.55;;;24.60;96.90;;;;;;5068835;28;20033;-75
2022/10/04 13:13:43;;;;;;;6.55;3.60;;;24.10;96.70;;;;;;5053295;28;20052;-75
2022/10/04 13:16:31;;;;;;;7.65;4.28;;;23.60;97.80;;;;;;5067440;28;20429;-75
2022/10/04 13:19:26;;;;;;;10.68;4.57;;;23.10;98.40;;;;;;5070009;28;20032;-75
2022/10/04 13:22:04;;;;;;;7.30;4.22;;;22.70;98.70;;;;;;5061814;28;20052;-75
2022/10/04 13:24:55;;;;;;;8.35;4.38;;;22.70;99.00;;;;;;5069842;28;20052;-75
2022/10/04 13:27:37;;;;;;;9.02;4.20;;;22.50;99.00;;;;;;5068793;28;20478;-74
2022/10/04 13:30:23;;;;;;;6.22;3.88;;;22.50;99.20;;;;;;5051987;28;20040;-75
2022/10/04 13:33:00;;;;;;;6.38;4.35;;;22.30;99.30;;;;;;5053020;28;20044;-75
2022/10/04 13:35:39;;;;;;;;;;;22.00;99.60;;;;;;5053181;28;20044;-75
2022/10/04 13:38:32;;;;;;;7.25;4.40;;;22.00;99.90;;;;;;5067897;28;19916;-75
2022/10/04 13:41:13;;;;;;;9.23;4.57;;;21.70;99.90;;;;;;5069283;28;20036;-76
2022/10/04 13:43:51;;;;;;;8.75;4.68;;;21.80;99.90;;;;;;5068113;28;20083;-75
2022/10/04 13:46:36;;;;;;;7.28;4.55;;;21.70;99.90;;;;;;5052504;28;20055;-76
2022/10/04 13:49:34;;;;;;;6.65;3.75;;;21.70;99.90;;;;;;5069365;28;20451;-76
2022/10/04 13:58:27;;;;;;;7.07;2.95;;;21.40;99.90;;;;;;5068326;28;20048;-75
2022/10/04 14:01:36;;;;;;;7.35;2.70;;;21.40;99.70;;;;;;5051923;28;20561;-75
2022/10/04 14:04:34;;;;;;;7.63;2.90;;;21.40;98.60;;;;;;5067778;28;20044;-75
2022/10/04 14:07:18;;;;;;;5.57;3.08;;;21.40;99.90;;;;;;5066078;28;20504;-76
2022/10/04 14:09:46;;;;;;;8.52;3.80;;;21.30;99.90;;;;;;5067270;28;20051;-76
2022/10/04 14:12:33;;;;;;;7.38;2.80;;;21.30;99.90;;;;;;5053979;28;20090;-83